sensor_id;sensor_type;location;lat;lon;timestamp;P1;durP1;ratioP1;P2;durP2;ratioP2
35312;SDS011;21425;50.454;30.466;2022-10-16T00:02:15;14.63;;;5.45;;
35312;SDS011;21425;50.454;30.466;2022-10-16T00:04:41;11.00;;;5.47;;
35312;SDS011;21425;50.454;30.466;2022-10-16T00:07:06;11.68;;;4.90;;
35312;SDS011;21425;50.454;30.466;2022-10-16T00:09:32;15.77;;;5.55;;
35312;SDS011;21425;50.454;30.466;2022-10-16T00:11:57;12.57;;;5.10;;
35312;SDS011;21425;50.454;30.466;2022-10-16T00:14:23;13.55;;;5.22;;
35312;SDS011;21425;50.454;30.466;2022-10-16T00:16:49;9.75;;;4.70;;
35312;SDS011;21425;50.454;30.466;2022-10-16T00:19:14;10.95;;;5.32;;
35312;SDS011;21425;50.454;30.466;2022-10-16T00:21:40;12.77;;;5.13;;
35312;SDS011;21425;50.454;30.466;2022-10-16T00:24:08;12.02;;;4.97;;
35312;SDS011;21425;50.454;30.466;2022-10-16T00:26:34;8.38;;;4.43;;
35312;SDS011;21425;50.454;30.466;2022-10-16T00:29:01;12.20;;;5.18;;
35312;SDS011;21425;50.454;30.466;2022-10-16T00:31:27;10.52;;;5.15;;
35312;SDS011;21425;50.454;30.466;2022-10-16T00:33:54;7.63;;;4.15;;
35312;SDS011;21425;50.454;30.466;2022-10-16T00:36:21;13.02;;;5.30;;
35312;SDS011;21425;50.454;30.466;2022-10-16T00:38:51;10.18;;;5.30;;
35312;SDS011;21425;50.454;30.466;2022-10-16T00:41:19;12.30;;;5.75;;
35312;SDS011;21425;50.454;30.466;2022-10-16T00:43:47;16.02;;;5.47;;
35312;SDS011;21425;50.454;30.466;2022-10-16T00:46:22;10.23;;;4.95;;
35312;SDS011;21425;50.454;30.466;2022-10-16T00:49:09;9.52;;;4.80;;
35312;SDS011;21425;50.454;30.466;2022-10-16T00:51:40;13.55;;;5.82;;
35312;SDS011;21425;50.454;30.466;2022-10-16T00:54:10;10.23;;;5.75;;
35312;SDS011;21425;50.454;30.466;2022-10-16T00:56:39;9.18;;;5.15;;
35312;SDS011;21425;50.454;30.466;2022-10-16T00:59:07;11.68;;;4.72;;
35312;SDS011;21425;50.454;30.466;2022-10-16T01:01:41;12.13;;;5.22;;
35312;SDS011;21425;50.454;30.466;2022-10-16T01:04:07;10.82;;;6.05;;
35312;SDS011;21425;50.454;30.466;2022-10-16T01:14:48;11.45;;;4.97;;
35312;SDS011;21425;50.454;30.466;2022-10-16T01:17:23;10.25;;;4.97;;
35312;SDS011;21425;50.454;30.466;2022-10-16T01:20:09;9.65;;;5.00;;
35312;SDS011;21425;50.454;30.466;2022-10-16T01:28:11;11.20;;;5.20;;
35312;SDS011;21425;50.454;30.466;2022-10-16T01:30:40;10.63;;;4.80;;
35312;SDS011;21425;50.454;30.466;2022-10-16T01:33:10;9.55;;;4.70;;
35312;SDS011;21425;50.454;30.466;2022-10-16T01:35:52;10.20;;;5.20;;
35312;SDS011;21425;50.454;30.466;2022-10-16T01:38:40;17.33;;;5.22;;
35312;SDS011;21425;50.454;30.466;2022-10-16T01:41:08;8.00;;;4.38;;
35312;SDS011;21425;50.454;30.466;2022-10-16T01:43:41;10.57;;;4.47;;
35312;SDS011;21425;50.454;30.466;2022-10-16T01:48:37;10.25;;;5.25;;
35312;SDS011;21425;50.454;30.466;2022-10-16T01:51:08;10.68;;;5.07;;
35312;SDS011;21425;50.454;30.466;2022-10-16T01:53:37;11.57;;;5.53;;
35312;SDS011;21425;50.454;30.466;2022-10-16T01:56:05;11.68;;;5.28;;
35312;SDS011;21425;50.454;30.466;2022-10-16T01:58:37;11.20;;;4.80;;
35312;SDS011;21425;50.454;30.466;2022-10-16T02:01:07;15.05;;;5.93;;
35312;SDS011;21425;50.454;30.466;2022-10-16T02:03:36;13.05;;;5.18;;
35312;SDS011;21425;50.454;30.466;2022-10-16T02:06:06;16.00;;;5.88;;
35312;SDS011;21425;50.454;30.466;2022-10-16T02:08:32;12.65;;;5.10;;
35312;SDS011;21425;50.454;30.466;2022-10-16T02:10:59;13.20;;;5.32;;
35312;SDS011;21425;50.454;30.466;2022-10-16T02:13:30;12.77;;;5.80;;
35312;SDS011;21425;50.454;30.466;2022-10-16T02:16:06;16.67;;;5.60;;
35312;SDS011;21425;50.454;30.466;2022-10-16T02:18:34;11.57;;;5.72;;
35312;SDS011;21425;50.454;30.466;2022-10-16T02:21:01;9.85;;;5.47;;
35312;SDS011;21425;50.454;30.466;2022-10-16T02:23:40;9.75;;;4.93;;
35312;SDS011;21425;50.454;30.466;2022-10-16T02:26:17;11.52;;;5.45;;
35312;SDS011;21425;50.454;30.466;2022-10-16T02:28:58;17.48;;;5.03;;
35312;SDS011;21425;50.454;30.466;2022-10-16T02:31:30;13.03;;;5.53;;
35312;SDS011;21425;50.454;30.466;2022-10-16T02:33:59;10.23;;;5.10;;
35312;SDS011;21425;50.454;30.466;2022-10-16T02:36:27;11.55;;;5.07;;
35312;SDS011;21425;50.454;30.466;2022-10-16T02:38:54;10.75;;;5.15;;
35312;SDS011;21425;50.454;30.466;2022-10-16T02:41:20;16.55;;;6.18;;
35312;SDS011;21425;50.454;30.466;2022-10-16T02:43:48;18.27;;;7.18;;
35312;SDS011;21425;50.454;30.466;2022-10-16T02:46:14;12.25;;;7.47;;
35312;SDS011;21425;50.454;30.466;2022-10-16T02:48:40;15.23;;;6.03;;
35312;SDS011;21425;50.454;30.466;2022-10-16T02:51:06;10.00;;;5.97;;
35312;SDS011;21425;50.454;30.466;2022-10-16T02:53:31;13.98;;;5.78;;
35312;SDS011;21425;50.454;30.466;2022-10-16T02:55:57;13.07;;;6.32;;
35312;SDS011;21425;50.454;30.466;2022-10-16T02:58:22;17.02;;;6.72;;
35312;SDS011;21425;50.454;30.466;2022-10-16T03:00:48;15.10;;;7.60;;
35312;SDS011;21425;50.454;30.466;2022-10-16T03:03:14;15.23;;;6.85;;
35312;SDS011;21425;50.454;30.466;2022-10-16T03:05:39;17.73;;;7.35;;
35312;SDS011;21425;50.454;30.466;2022-10-16T03:08:05;20.52;;;6.60;;
35312;SDS011;21425;50.454;30.466;2022-10-16T03:10:30;15.75;;;6.15;;
35312;SDS011;21425;50.454;30.466;2022-10-16T03:12:56;13.20;;;7.10;;
35312;SDS011;21425;50.454;30.466;2022-10-16T03:15:21;15.45;;;6.80;;
35312;SDS011;21425;50.454;30.466;2022-10-16T03:17:47;13.52;;;6.82;;
35312;SDS011;21425;50.454;30.466;2022-10-16T03:20:13;10.15;;;5.93;;
35312;SDS011;21425;50.454;30.466;2022-10-16T03:22:38;15.75;;;6.95;;
35312;SDS011;21425;50.454;30.466;2022-10-16T03:25:04;14.75;;;5.80;;
35312;SDS011;21425;50.454;30.466;2022-10-16T03:27:30;14.93;;;6.82;;
35312;SDS011;21425;50.454;30.466;2022-10-16T03:29:55;13.95;;;7.05;;
35312;SDS011;21425;50.454;30.466;2022-10-16T03:32:21;11.48;;;6.00;;
35312;SDS011;21425;50.454;30.466;2022-10-16T03:34:47;15.52;;;5.90;;
35312;SDS011;21425;50.454;30.466;2022-10-16T03:37:12;15.77;;;6.75;;
35312;SDS011;21425;50.454;30.466;2022-10-16T03:39:38;13.93;;;5.97;;
35312;SDS011;21425;50.454;30.466;2022-10-16T03:42:03;15.32;;;6.53;;
35312;SDS011;21425;50.454;30.466;2022-10-16T03:44:29;14.23;;;7.40;;
35312;SDS011;21425;50.454;30.466;2022-10-16T03:46:55;11.57;;;6.40;;
35312;SDS011;21425;50.454;30.466;2022-10-16T03:49:21;11.80;;;5.97;;
35312;SDS011;21425;50.454;30.466;2022-10-16T03:51:46;14.13;;;6.60;;
35312;SDS011;21425;50.454;30.466;2022-10-16T03:54:12;14.80;;;7.47;;
35312;SDS011;21425;50.454;30.466;2022-10-16T03:56:37;14.25;;;6.25;;
35312;SDS011;21425;50.454;30.466;2022-10-16T03:59:03;12.48;;;5.90;;
35312;SDS011;21425;50.454;30.466;2022-10-16T04:01:29;14.60;;;6.95;;
35312;SDS011;21425;50.454;30.466;2022-10-16T04:03:55;14.85;;;6.85;;
35312;SDS011;21425;50.454;30.466;2022-10-16T04:06:20;13.43;;;6.65;;
35312;SDS011;21425;50.454;30.466;2022-10-16T04:08:46;18.65;;;7.20;;
35312;SDS011;21425;50.454;30.466;2022-10-16T04:11:11;18.90;;;6.78;;
35312;SDS011;21425;50.454;30.466;2022-10-16T04:13:37;17.95;;;6.78;;
35312;SDS011;21425;50.454;30.466;2022-10-16T04:16:03;20.35;;;7.15;;
35312;SDS011;21425;50.454;30.466;2022-10-16T04:18:28;16.83;;;7.03;;
35312;SDS011;21425;50.454;30.466;2022-10-16T04:20:54;14.60;;;6.55;;
35312;SDS011;21425;50.454;30.466;2022-10-16T04:23:20;18.25;;;8.20;;
35312;SDS011;21425;50.454;30.466;2022-10-16T04:25:47;15.93;;;6.93;;
35312;SDS011;21425;50.454;30.466;2022-10-16T04:28:13;12.27;;;7.00;;
35312;SDS011;21425;50.454;30.466;2022-10-16T04:30:39;20.10;;;7.38;;
35312;SDS011;21425;50.454;30.466;2022-10-16T04:33:04;17.63;;;7.82;;
35312;SDS011;21425;50.454;30.466;2022-10-16T04:35:30;14.38;;;7.05;;
35312;SDS011;21425;50.454;30.466;2022-10-16T04:37:58;20.17;;;8.23;;
35312;SDS011;21425;50.454;30.466;2022-10-16T04:40:24;15.68;;;7.20;;
35312;SDS011;21425;50.454;30.466;2022-10-16T04:42:50;13.32;;;7.25;;
35312;SDS011;21425;50.454;30.466;2022-10-16T04:45:15;20.15;;;8.35;;
35312;SDS011;21425;50.454;30.466;2022-10-16T04:47:41;14.48;;;7.35;;
35312;SDS011;21425;50.454;30.466;2022-10-16T04:50:06;17.00;;;7.45;;
35312;SDS011;21425;50.454;30.466;2022-10-16T04:52:32;17.92;;;8.18;;
35312;SDS011;21425;50.454;30.466;2022-10-16T04:54:58;25.48;;;9.15;;
35312;SDS011;21425;50.454;30.466;2022-10-16T04:57:27;15.88;;;7.18;;
35312;SDS011;21425;50.454;30.466;2022-10-16T04:59:53;20.52;;;8.40;;
35312;SDS011;21425;50.454;30.466;2022-10-16T05:02:18;13.57;;;7.57;;
35312;SDS011;21425;50.454;30.466;2022-10-16T05:04:44;19.40;;;7.97;;
35312;SDS011;21425;50.454;30.466;2022-10-16T05:07:09;17.85;;;7.53;;
35312;SDS011;21425;50.454;30.466;2022-10-16T05:09:35;18.42;;;6.90;;
35312;SDS011;21425;50.454;30.466;2022-10-16T05:12:01;13.68;;;6.90;;
35312;SDS011;21425;50.454;30.466;2022-10-16T05:14:28;18.52;;;7.97;;
35312;SDS011;21425;50.454;30.466;2022-10-16T05:16:54;24.35;;;8.80;;
35312;SDS011;21425;50.454;30.466;2022-10-16T05:19:20;16.10;;;7.13;;
35312;SDS011;21425;50.454;30.466;2022-10-16T05:21:45;12.40;;;6.78;;
35312;SDS011;21425;50.454;30.466;2022-10-16T05:24:11;16.42;;;7.47;;
35312;SDS011;21425;50.454;30.466;2022-10-16T05:26:36;15.15;;;7.60;;
35312;SDS011;21425;50.454;30.466;2022-10-16T05:29:03;20.23;;;8.25;;
35312;SDS011;21425;50.454;30.466;2022-10-16T05:31:28;14.70;;;7.40;;
35312;SDS011;21425;50.454;30.466;2022-10-16T05:33:58;15.43;;;8.05;;
35312;SDS011;21425;50.454;30.466;2022-10-16T05:36:25;15.98;;;8.23;;
35312;SDS011;21425;50.454;30.466;2022-10-16T05:38:50;15.52;;;7.90;;
35312;SDS011;21425;50.454;30.466;2022-10-16T05:41:16;15.43;;;7.97;;
35312;SDS011;21425;50.454;30.466;2022-10-16T05:43:46;17.15;;;7.43;;
35312;SDS011;21425;50.454;30.466;2022-10-16T05:46:12;20.10;;;7.63;;
35312;SDS011;21425;50.454;30.466;2022-10-16T05:48:38;12.85;;;6.60;;
35312;SDS011;21425;50.454;30.466;2022-10-16T05:51:04;19.77;;;8.05;;
35312;SDS011;21425;50.454;30.466;2022-10-16T05:53:35;16.95;;;7.70;;
35312;SDS011;21425;50.454;30.466;2022-10-16T05:56:02;14.63;;;7.15;;
35312;SDS011;21425;50.454;30.466;2022-10-16T05:58:29;12.45;;;6.68;;
35312;SDS011;21425;50.454;30.466;2022-10-16T06:01:01;17.00;;;7.95;;
35312;SDS011;21425;50.454;30.466;2022-10-16T06:03:31;14.18;;;7.07;;
35312;SDS011;21425;50.454;30.466;2022-10-16T06:05:57;14.43;;;6.60;;
35312;SDS011;21425;50.454;30.466;2022-10-16T06:08:23;12.45;;;6.75;;
35312;SDS011;21425;50.454;30.466;2022-10-16T06:10:49;11.50;;;6.95;;
35312;SDS011;21425;50.454;30.466;2022-10-16T06:13:24;12.60;;;6.70;;
35312;SDS011;21425;50.454;30.466;2022-10-16T06:15:50;13.00;;;6.07;;
35312;SDS011;21425;50.454;30.466;2022-10-16T06:18:16;15.45;;;6.60;;
35312;SDS011;21425;50.454;30.466;2022-10-16T06:20:41;15.90;;;6.68;;
35312;SDS011;21425;50.454;30.466;2022-10-16T06:23:07;15.27;;;6.75;;
35312;SDS011;21425;50.454;30.466;2022-10-16T06:25:33;14.18;;;6.40;;
35312;SDS011;21425;50.454;30.466;2022-10-16T06:27:58;15.93;;;6.43;;
35312;SDS011;21425;50.454;30.466;2022-10-16T06:30:24;12.75;;;6.88;;
35312;SDS011;21425;50.454;30.466;2022-10-16T06:32:49;11.75;;;6.05;;
35312;SDS011;21425;50.454;30.466;2022-10-16T06:35:15;13.85;;;5.60;;
35312;SDS011;21425;50.454;30.466;2022-10-16T06:37:41;13.95;;;5.95;;
35312;SDS011;21425;50.454;30.466;2022-10-16T06:40:06;13.70;;;6.55;;
35312;SDS011;21425;50.454;30.466;2022-10-16T06:42:32;10.27;;;5.53;;
35312;SDS011;21425;50.454;30.466;2022-10-16T06:44:58;15.73;;;6.07;;
35312;SDS011;21425;50.454;30.466;2022-10-16T06:47:23;12.35;;;5.55;;
35312;SDS011;21425;50.454;30.466;2022-10-16T06:49:49;9.50;;;5.40;;
35312;SDS011;21425;50.454;30.466;2022-10-16T06:52:15;13.75;;;7.35;;
35312;SDS011;21425;50.454;30.466;2022-10-16T06:54:41;14.93;;;6.15;;
35312;SDS011;21425;50.454;30.466;2022-10-16T06:57:06;15.20;;;5.82;;
35312;SDS011;21425;50.454;30.466;2022-10-16T06:59:32;12.10;;;5.70;;
35312;SDS011;21425;50.454;30.466;2022-10-16T07:01:58;12.60;;;5.85;;
35312;SDS011;21425;50.454;30.466;2022-10-16T07:04:23;13.30;;;6.15;;
35312;SDS011;21425;50.454;30.466;2022-10-16T07:06:49;12.02;;;6.00;;
35312;SDS011;21425;50.454;30.466;2022-10-16T07:09:16;12.07;;;5.55;;
35312;SDS011;21425;50.454;30.466;2022-10-16T07:11:42;17.17;;;5.72;;
35312;SDS011;21425;50.454;30.466;2022-10-16T07:14:15;11.30;;;5.45;;
35312;SDS011;21425;50.454;30.466;2022-10-16T07:16:42;9.50;;;5.15;;
35312;SDS011;21425;50.454;30.466;2022-10-16T07:19:08;10.52;;;4.95;;
35312;SDS011;21425;50.454;30.466;2022-10-16T07:21:34;10.95;;;5.55;;
35312;SDS011;21425;50.454;30.466;2022-10-16T07:24:03;11.88;;;5.53;;
35312;SDS011;21425;50.454;30.466;2022-10-16T07:26:32;14.52;;;5.88;;
35312;SDS011;21425;50.454;30.466;2022-10-16T07:28:59;11.38;;;5.32;;
35312;SDS011;21425;50.454;30.466;2022-10-16T07:31:25;11.45;;;4.97;;
35312;SDS011;21425;50.454;30.466;2022-10-16T07:33:52;11.75;;;5.13;;
35312;SDS011;21425;50.454;30.466;2022-10-16T07:36:18;9.60;;;4.95;;
35312;SDS011;21425;50.454;30.466;2022-10-16T07:38:45;10.45;;;5.05;;
35312;SDS011;21425;50.454;30.466;2022-10-16T07:41:12;13.27;;;5.47;;
35312;SDS011;21425;50.454;30.466;2022-10-16T07:43:39;11.65;;;5.60;;
35312;SDS011;21425;50.454;30.466;2022-10-16T07:46:05;12.07;;;4.82;;
35312;SDS011;21425;50.454;30.466;2022-10-16T07:48:32;10.90;;;5.07;;
35312;SDS011;21425;50.454;30.466;2022-10-16T07:50:59;10.63;;;4.70;;
35312;SDS011;21425;50.454;30.466;2022-10-16T07:53:26;8.15;;;4.53;;
35312;SDS011;21425;50.454;30.466;2022-10-16T07:55:56;10.93;;;4.85;;
35312;SDS011;21425;50.454;30.466;2022-10-16T07:58:26;10.32;;;4.88;;
35312;SDS011;21425;50.454;30.466;2022-10-16T08:00:53;14.50;;;4.30;;
35312;SDS011;21425;50.454;30.466;2022-10-16T08:03:18;13.75;;;4.97;;
35312;SDS011;21425;50.454;30.466;2022-10-16T08:05:44;9.20;;;4.88;;
35312;SDS011;21425;50.454;30.466;2022-10-16T08:08:12;9.13;;;4.40;;
35312;SDS011;21425;50.454;30.466;2022-10-16T08:10:38;9.18;;;4.15;;
35312;SDS011;21425;50.454;30.466;2022-10-16T08:13:04;8.13;;;4.07;;
35312;SDS011;21425;50.454;30.466;2022-10-16T08:15:30;15.02;;;4.60;;
35312;SDS011;21425;50.454;30.466;2022-10-16T08:18:00;14.90;;;4.43;;
35312;SDS011;21425;50.454;30.466;2022-10-16T08:20:27;8.93;;;4.63;;
35312;SDS011;21425;50.454;30.466;2022-10-16T08:22:54;10.95;;;4.65;;
35312;SDS011;21425;50.454;30.466;2022-10-16T08:25:21;13.73;;;6.22;;
35312;SDS011;21425;50.454;30.466;2022-10-16T08:27:47;9.02;;;4.80;;
35312;SDS011;21425;50.454;30.466;2022-10-16T08:30:14;10.27;;;4.63;;
35312;SDS011;21425;50.454;30.466;2022-10-16T08:32:40;10.98;;;4.78;;
35312;SDS011;21425;50.454;30.466;2022-10-16T08:35:07;9.43;;;4.75;;
35312;SDS011;21425;50.454;30.466;2022-10-16T08:37:34;10.13;;;5.05;;
35312;SDS011;21425;50.454;30.466;2022-10-16T08:39:59;11.02;;;4.10;;
35312;SDS011;21425;50.454;30.466;2022-10-16T08:52:53;10.15;;;4.05;;
35312;SDS011;21425;50.454;30.466;2022-10-16T08:55:27;6.50;;;4.07;;
35312;SDS011;21425;50.454;30.466;2022-10-16T08:57:57;6.05;;;3.65;;
35312;SDS011;21425;50.454;30.466;2022-10-16T09:00:23;9.02;;;4.05;;
35312;SDS011;21425;50.454;30.466;2022-10-16T09:08:59;5.75;;;3.53;;
35312;SDS011;21425;50.454;30.466;2022-10-16T09:16:44;7.45;;;3.80;;
35312;SDS011;21425;50.454;30.466;2022-10-16T09:19:24;7.10;;;3.60;;
35312;SDS011;21425;50.454;30.466;2022-10-16T09:22:02;7.95;;;3.97;;
35312;SDS011;21425;50.454;30.466;2022-10-16T09:24:37;9.57;;;3.70;;
35312;SDS011;21425;50.454;30.466;2022-10-16T09:27:03;6.50;;;3.58;;
35312;SDS011;21425;50.454;30.466;2022-10-16T09:29:28;10.32;;;3.60;;
35312;SDS011;21425;50.454;30.466;2022-10-16T09:31:54;9.45;;;3.97;;
35312;SDS011;21425;50.454;30.466;2022-10-16T09:36:49;5.03;;;2.72;;
35312;SDS011;21425;50.454;30.466;2022-10-16T09:39:15;8.48;;;3.00;;
35312;SDS011;21425;50.454;30.466;2022-10-16T09:41:42;5.00;;;3.00;;
35312;SDS011;21425;50.454;30.466;2022-10-16T09:44:28;6.72;;;2.70;;
35312;SDS011;21425;50.454;30.466;2022-10-16T09:47:05;5.88;;;2.63;;
35312;SDS011;21425;50.454;30.466;2022-10-16T09:49:58;6.30;;;2.97;;
35312;SDS011;21425;50.454;30.466;2022-10-16T09:54:54;6.45;;;3.38;;
35312;SDS011;21425;50.454;30.466;2022-10-16T09:57:24;7.00;;;3.13;;
35312;SDS011;21425;50.454;30.466;2022-10-16T09:59:52;7.72;;;3.60;;
35312;SDS011;21425;50.454;30.466;2022-10-16T10:02:20;7.88;;;4.07;;
35312;SDS011;21425;50.454;30.466;2022-10-16T10:04:54;6.57;;;3.08;;
35312;SDS011;21425;50.454;30.466;2022-10-16T10:07:23;9.57;;;3.17;;
35312;SDS011;21425;50.454;30.466;2022-10-16T10:09:51;8.13;;;3.30;;
35312;SDS011;21425;50.454;30.466;2022-10-16T10:12:24;9.43;;;3.60;;
35312;SDS011;21425;50.454;30.466;2022-10-16T10:17:19;6.78;;;3.13;;
35312;SDS011;21425;50.454;30.466;2022-10-16T10:19:53;7.32;;;3.42;;
35312;SDS011;21425;50.454;30.466;2022-10-16T10:30:25;10.55;;;3.92;;
35312;SDS011;21425;50.454;30.466;2022-10-16T10:33:18;9.35;;;3.20;;
35312;SDS011;21425;50.454;30.466;2022-10-16T10:38:38;12.32;;;3.60;;
35312;SDS011;21425;50.454;30.466;2022-10-16T10:41:24;9.60;;;2.85;;
35312;SDS011;21425;50.454;30.466;2022-10-16T10:46:42;6.45;;;2.58;;
35312;SDS011;21425;50.454;30.466;2022-10-16T10:54:49;10.57;;;3.03;;
35312;SDS011;21425;50.454;30.466;2022-10-16T10:57:39;8.00;;;3.10;;
35312;SDS011;21425;50.454;30.466;2022-10-16T11:00:19;8.98;;;2.90;;
35312;SDS011;21425;50.454;30.466;2022-10-16T11:02:54;10.32;;;2.80;;
35312;SDS011;21425;50.454;30.466;2022-10-16T11:06:07;7.35;;;2.67;;
35312;SDS011;21425;50.454;30.466;2022-10-16T11:08:52;7.18;;;2.45;;
35312;SDS011;21425;50.454;30.466;2022-10-16T11:11:24;6.43;;;2.50;;
35312;SDS011;21425;50.454;30.466;2022-10-16T11:14:14;6.88;;;2.97;;
35312;SDS011;21425;50.454;30.466;2022-10-16T11:16:51;4.90;;;2.63;;
35312;SDS011;21425;50.454;30.466;2022-10-16T11:19:25;8.32;;;2.30;;
35312;SDS011;21425;50.454;30.466;2022-10-16T11:24:52;8.07;;;2.72;;
35312;SDS011;21425;50.454;30.466;2022-10-16T11:27:35;4.55;;;2.35;;
35312;SDS011;21425;50.454;30.466;2022-10-16T11:30:12;9.25;;;2.90;;
35312;SDS011;21425;50.454;30.466;2022-10-16T11:35:37;7.18;;;2.60;;
35312;SDS011;21425;50.454;30.466;2022-10-16T11:38:15;8.55;;;2.53;;
35312;SDS011;21425;50.454;30.466;2022-10-16T11:40:53;6.28;;;2.60;;
35312;SDS011;21425;50.454;30.466;2022-10-16T11:43:25;4.97;;;2.65;;
35312;SDS011;21425;50.454;30.466;2022-10-16T11:46:10;7.63;;;2.80;;
35312;SDS011;21425;50.454;30.466;2022-10-16T11:48:48;5.60;;;2.45;;
35312;SDS011;21425;50.454;30.466;2022-10-16T11:54:07;7.13;;;2.60;;
35312;SDS011;21425;50.454;30.466;2022-10-16T11:56:36;6.18;;;2.80;;
35312;SDS011;21425;50.454;30.466;2022-10-16T11:59:11;8.13;;;2.95;;
35312;SDS011;21425;50.454;30.466;2022-10-16T12:01:43;6.25;;;2.33;;
35312;SDS011;21425;50.454;30.466;2022-10-16T12:07:01;9.93;;;2.85;;
35312;SDS011;21425;50.454;30.466;2022-10-16T12:09:34;7.72;;;2.63;;
35312;SDS011;21425;50.454;30.466;2022-10-16T12:12:03;8.27;;;2.72;;
35312;SDS011;21425;50.454;30.466;2022-10-16T12:14:34;9.15;;;2.58;;
35312;SDS011;21425;50.454;30.466;2022-10-16T12:17:01;8.15;;;2.75;;
35312;SDS011;21425;50.454;30.466;2022-10-16T12:19:56;6.38;;;2.92;;
35312;SDS011;21425;50.454;30.466;2022-10-16T12:22:28;8.95;;;2.80;;
35312;SDS011;21425;50.454;30.466;2022-10-16T12:24:55;4.07;;;2.50;;
35312;SDS011;21425;50.454;30.466;2022-10-16T12:29:56;10.50;;;3.33;;
35312;SDS011;21425;50.454;30.466;2022-10-16T12:32:28;11.00;;;2.97;;
35312;SDS011;21425;50.454;30.466;2022-10-16T12:34:56;5.97;;;2.58;;
35312;SDS011;21425;50.454;30.466;2022-10-16T12:37:24;9.68;;;2.95;;
35312;SDS011;21425;50.454;30.466;2022-10-16T12:39:53;8.65;;;3.22;;
35312;SDS011;21425;50.454;30.466;2022-10-16T12:44:51;8.90;;;3.50;;
35312;SDS011;21425;50.454;30.466;2022-10-16T12:47:24;10.50;;;2.90;;
35312;SDS011;21425;50.454;30.466;2022-10-16T12:50:02;9.40;;;3.08;;
35312;SDS011;21425;50.454;30.466;2022-10-16T12:52:37;6.10;;;3.28;;
35312;SDS011;21425;50.454;30.466;2022-10-16T12:55:05;8.68;;;3.42;;
35312;SDS011;21425;50.454;30.466;2022-10-16T13:00:26;6.25;;;3.20;;
35312;SDS011;21425;50.454;30.466;2022-10-16T13:04:03;6.20;;;3.22;;
35312;SDS011;21425;50.454;30.466;2022-10-16T13:06:12;6.07;;;2.97;;
35312;SDS011;21425;50.454;30.466;2022-10-16T13:11:44;7.45;;;3.15;;
35312;SDS011;21425;50.454;30.466;2022-10-16T13:16:46;6.28;;;2.83;;
35312;SDS011;21425;50.454;30.466;2022-10-16T13:30:19;11.90;;;3.67;;
35312;SDS011;21425;50.454;30.466;2022-10-16T13:32:49;10.40;;;3.40;;
35312;SDS011;21425;50.454;30.466;2022-10-16T13:35:22;14.73;;;3.55;;
35312;SDS011;21425;50.454;30.466;2022-10-16T13:37:50;7.93;;;3.42;;
35312;SDS011;21425;50.454;30.466;2022-10-16T13:40:20;8.13;;;2.75;;
35312;SDS011;21425;50.454;30.466;2022-10-16T13:42:47;8.13;;;3.15;;
35312;SDS011;21425;50.454;30.466;2022-10-16T13:45:17;9.13;;;3.72;;
35312;SDS011;21425;50.454;30.466;2022-10-16T13:47:44;7.85;;;3.45;;
35312;SDS011;21425;50.454;30.466;2022-10-16T13:50:11;7.38;;;3.40;;
35312;SDS011;21425;50.454;30.466;2022-10-16T13:52:38;9.73;;;3.25;;
35312;SDS011;21425;50.454;30.466;2022-10-16T13:55:15;6.30;;;3.25;;
35312;SDS011;21425;50.454;30.466;2022-10-16T13:57:42;15.45;;;3.10;;
35312;SDS011;21425;50.454;30.466;2022-10-16T14:00:21;8.98;;;3.55;;
35312;SDS011;21425;50.454;30.466;2022-10-16T14:02:53;8.15;;;3.90;;
35312;SDS011;21425;50.454;30.466;2022-10-16T14:05:23;10.63;;;3.92;;
35312;SDS011;21425;50.454;30.466;2022-10-16T14:07:50;9.02;;;3.92;;
35312;SDS011;21425;50.454;30.466;2022-10-16T14:10:30;8.52;;;3.97;;
35312;SDS011;21425;50.454;30.466;2022-10-16T14:13:02;6.63;;;3.58;;
35312;SDS011;21425;50.454;30.466;2022-10-16T14:15:30;7.30;;;3.70;;
35312;SDS011;21425;50.454;30.466;2022-10-16T14:17:57;11.63;;;4.00;;
35312;SDS011;21425;50.454;30.466;2022-10-16T14:20:28;9.93;;;4.18;;
35312;SDS011;21425;50.454;30.466;2022-10-16T14:23:38;8.13;;;3.60;;
35312;SDS011;21425;50.454;30.466;2022-10-16T14:25:44;8.85;;;3.40;;
35312;SDS011;21425;50.454;30.466;2022-10-16T14:28:20;9.23;;;3.85;;
35312;SDS011;21425;50.454;30.466;2022-10-16T14:30:51;11.45;;;3.63;;
35312;SDS011;21425;50.454;30.466;2022-10-16T14:33:22;16.30;;;4.07;;
35312;SDS011;21425;50.454;30.466;2022-10-16T14:38:27;7.82;;;4.20;;
35312;SDS011;21425;50.454;30.466;2022-10-16T14:40:54;13.95;;;4.05;;
35312;SDS011;21425;50.454;30.466;2022-10-16T14:43:40;11.00;;;3.88;;
35312;SDS011;21425;50.454;30.466;2022-10-16T14:48:43;10.65;;;4.78;;
35312;SDS011;21425;50.454;30.466;2022-10-16T14:51:15;11.75;;;4.50;;
35312;SDS011;21425;50.454;30.466;2022-10-16T14:53:44;12.73;;;4.53;;
35312;SDS011;21425;50.454;30.466;2022-10-16T14:56:19;9.35;;;4.65;;
35312;SDS011;21425;50.454;30.466;2022-10-16T14:58:49;10.80;;;4.43;;
35312;SDS011;21425;50.454;30.466;2022-10-16T15:01:16;9.77;;;5.03;;
35312;SDS011;21425;50.454;30.466;2022-10-16T15:03:42;16.98;;;4.82;;
35312;SDS011;21425;50.454;30.466;2022-10-16T15:06:12;10.38;;;4.75;;
35312;SDS011;21425;50.454;30.466;2022-10-16T15:08:39;8.40;;;3.83;;
35312;SDS011;21425;50.454;30.466;2022-10-16T15:11:05;9.55;;;4.25;;
35312;SDS011;21425;50.454;30.466;2022-10-16T15:13:38;7.90;;;4.18;;
35312;SDS011;21425;50.454;30.466;2022-10-16T15:16:04;11.48;;;5.20;;
35312;SDS011;21425;50.454;30.466;2022-10-16T15:18:32;18.25;;;5.35;;
35312;SDS011;21425;50.454;30.466;2022-10-16T15:20:57;11.27;;;4.57;;
35312;SDS011;21425;50.454;30.466;2022-10-16T15:23:23;14.00;;;5.32;;
35312;SDS011;21425;50.454;30.466;2022-10-16T15:25:52;11.02;;;5.18;;
35312;SDS011;21425;50.454;30.466;2022-10-16T15:28:20;10.73;;;5.13;;
35312;SDS011;21425;50.454;30.466;2022-10-16T15:30:46;11.75;;;5.35;;
35312;SDS011;21425;50.454;30.466;2022-10-16T15:33:16;11.88;;;5.43;;
35312;SDS011;21425;50.454;30.466;2022-10-16T15:35:47;14.15;;;5.65;;
35312;SDS011;21425;50.454;30.466;2022-10-16T15:38:14;14.40;;;5.25;;
35312;SDS011;21425;50.454;30.466;2022-10-16T15:40:40;18.02;;;6.22;;
35312;SDS011;21425;50.454;30.466;2022-10-16T15:43:07;18.60;;;6.35;;
35312;SDS011;21425;50.454;30.466;2022-10-16T15:45:33;13.88;;;5.72;;
35312;SDS011;21425;50.454;30.466;2022-10-16T15:47:59;11.95;;;6.13;;
35312;SDS011;21425;50.454;30.466;2022-10-16T15:50:25;13.70;;;6.70;;
35312;SDS011;21425;50.454;30.466;2022-10-16T15:52:51;12.02;;;6.22;;
35312;SDS011;21425;50.454;30.466;2022-10-16T15:55:17;18.95;;;7.20;;
35312;SDS011;21425;50.454;30.466;2022-10-16T15:57:44;15.10;;;6.68;;
35312;SDS011;21425;50.454;30.466;2022-10-16T16:00:11;15.27;;;6.95;;
35312;SDS011;21425;50.454;30.466;2022-10-16T16:02:39;16.65;;;7.47;;
35312;SDS011;21425;50.454;30.466;2022-10-16T16:05:06;13.05;;;6.80;;
35312;SDS011;21425;50.454;30.466;2022-10-16T16:07:36;17.45;;;7.32;;
35312;SDS011;21425;50.454;30.466;2022-10-16T16:10:05;15.52;;;7.38;;
35312;SDS011;21425;50.454;30.466;2022-10-16T16:12:32;21.73;;;8.57;;
35312;SDS011;21425;50.454;30.466;2022-10-16T16:14:58;15.38;;;7.43;;
35312;SDS011;21425;50.454;30.466;2022-10-16T16:17:23;17.10;;;8.07;;
35312;SDS011;21425;50.454;30.466;2022-10-16T16:19:49;17.02;;;8.43;;
35312;SDS011;21425;50.454;30.466;2022-10-16T16:22:15;20.45;;;8.30;;
35312;SDS011;21425;50.454;30.466;2022-10-16T16:24:41;19.67;;;7.95;;